createdAt,value
2019-01-11T00:01:54.776Z,4.60
2019-01-11T00:04:23.719Z,4.43
2019-01-11T00:06:52.563Z,3.70
2019-01-11T00:09:21.403Z,4.33
2019-01-11T00:11:50.286Z,4.33
2019-01-11T00:14:19.187Z,4.53
2019-01-11T00:16:47.998Z,4.77
2019-01-11T00:19:16.836Z,4.67
2019-01-11T00:21:45.740Z,5.17
2019-01-11T00:24:14.727Z,4.80
2019-01-11T00:26:43.728Z,4.70
2019-01-11T00:29:12.763Z,5.20
2019-01-11T00:31:41.789Z,5.00
2019-01-11T00:34:10.958Z,4.92
2019-01-11T00:36:39.939Z,4.83
2019-01-11T00:39:09.687Z,5.67
2019-01-11T00:41:38.644Z,5.50
2019-01-11T00:44:07.687Z,5.60
2019-01-11T00:46:36.741Z,5.70
2019-01-11T00:49:06.165Z,6.30
2019-01-11T00:51:37.405Z,6.47
2019-01-11T00:54:06.585Z,5.90
2019-01-11T00:56:35.561Z,5.10
2019-01-11T00:59:05.258Z,5.70
2019-01-11T01:01:35.983Z,6.07
2019-01-11T01:04:05.162Z,6.83
2019-01-11T01:06:34.157Z,6.20
2019-01-11T01:09:04.870Z,6.03
2019-01-11T01:11:33.820Z,6.47
2019-01-11T01:14:04.076Z,6.00
2019-01-11T01:16:33.144Z,7.00
2019-01-11T01:19:02.191Z,6.07
2019-01-11T01:21:31.199Z,7.07
2019-01-11T01:24:00.144Z,6.43
2019-01-11T01:26:29.153Z,5.90
2019-01-11T01:28:58.112Z,5.87
2019-01-11T01:31:27.478Z,5.90
2019-01-11T01:33:56.558Z,6.50
2019-01-11T01:36:25.547Z,6.90
2019-01-11T01:38:54.560Z,6.53
2019-01-11T01:41:23.429Z,6.57
2019-01-11T01:43:52.337Z,6.40
2019-01-11T01:46:21.280Z,6.87
2019-01-11T01:48:50.185Z,5.73
2019-01-11T01:51:19.010Z,6.13
2019-01-11T01:53:47.822Z,6.20
2019-01-11T01:56:16.622Z,6.90
2019-01-11T01:58:46.904Z,6.80
2019-01-11T02:01:15.901Z,6.67
2019-01-11T02:03:44.850Z,6.80
2019-01-11T02:06:13.785Z,6.20
2019-01-11T02:08:42.591Z,7.03
2019-01-11T02:11:13.570Z,9.03
2019-01-11T02:13:42.557Z,8.70
2019-01-11T02:16:11.451Z,7.23
2019-01-11T02:18:40.350Z,8.00
2019-01-11T02:21:09.260Z,8.80
2019-01-11T02:23:38.225Z,9.80
2019-01-11T02:26:07.232Z,8.73
2019-01-11T02:28:36.037Z,8.43
2019-01-11T02:31:04.943Z,9.13
2019-01-11T02:33:33.934Z,11.70
2019-01-11T02:36:02.871Z,12.13
2019-01-11T02:38:32.331Z,11.48
2019-01-11T02:41:01.798Z,10.20
2019-01-11T02:43:30.768Z,11.67
2019-01-11T02:45:59.797Z,12.90
2019-01-11T02:48:28.618Z,11.57
2019-01-11T02:50:57.463Z,12.07
2019-01-11T02:53:26.337Z,12.03
2019-01-11T02:55:55.335Z,12.00
2019-01-11T02:58:24.223Z,12.70
2019-01-11T03:00:53.193Z,12.57
2019-01-11T03:03:22.075Z,12.00
2019-01-11T03:05:51.027Z,12.70
2019-01-11T03:08:19.861Z,11.60
2019-01-11T03:10:48.714Z,12.07
2019-01-11T03:13:17.634Z,12.73
2019-01-11T03:15:46.474Z,12.67
2019-01-11T03:18:15.469Z,11.47
2019-01-11T03:20:44.473Z,12.03
2019-01-11T03:23:13.306Z,12.83
2019-01-11T03:25:42.318Z,12.57
2019-01-11T03:28:11.268Z,11.90
2019-01-11T03:30:40.240Z,13.40
2019-01-11T03:33:09.174Z,12.73
2019-01-11T03:35:38.088Z,12.67
2019-01-11T03:38:07.061Z,13.57
2019-01-11T03:40:36.049Z,13.07
2019-01-11T03:43:06.072Z,13.43
2019-01-11T03:45:35.003Z,12.97
2019-01-11T03:48:03.976Z,13.43
2019-01-11T03:50:32.893Z,13.80
2019-01-11T03:53:01.776Z,14.10
2019-01-11T03:55:30.739Z,14.00
2019-01-11T03:57:59.657Z,14.57
2019-01-11T04:00:28.643Z,14.70
2019-01-11T04:02:57.631Z,14.00
2019-01-11T04:05:26.591Z,14.03
2019-01-11T04:07:55.365Z,13.17
2019-01-11T04:10:24.709Z,14.17
2019-01-11T04:12:53.620Z,13.70
2019-01-11T04:15:23.430Z,12.97
2019-01-11T04:18:10.498Z,13.60
2019-01-11T04:20:39.374Z,14.53
2019-01-11T04:23:08.361Z,14.33
2019-01-11T04:25:40.801Z,14.00
2019-01-11T04:28:09.889Z,12.67
2019-01-11T04:30:38.992Z,12.80
2019-01-11T04:33:08.101Z,12.90
2019-01-11T04:35:37.145Z,12.33
2019-01-11T04:38:06.041Z,11.60
2019-01-11T04:40:35.121Z,12.10
2019-01-11T04:43:04.215Z,12.03
2019-01-11T04:45:33.227Z,11.43
2019-01-11T04:48:02.053Z,11.60
2019-01-11T04:50:31.135Z,10.57
2019-01-11T04:53:00.147Z,11.10
2019-01-11T04:55:29.080Z,11.03
2019-01-11T04:57:58.283Z,10.58
2019-01-11T05:00:27.376Z,11.20
2019-01-11T05:02:56.372Z,10.27
2019-01-11T05:05:25.307Z,9.53
2019-01-11T05:07:54.344Z,10.47
2019-01-11T05:10:23.602Z,9.77
2019-01-11T05:12:52.473Z,10.07
2019-01-11T05:15:21.440Z,11.00
2019-01-11T05:17:50.331Z,9.93
2019-01-11T05:20:19.274Z,9.40
2019-01-11T05:22:48.322Z,8.20
2019-01-11T05:25:17.484Z,9.77
2019-01-11T05:27:46.388Z,9.40
2019-01-11T05:30:19.832Z,9.27
2019-01-11T05:32:48.818Z,8.50
2019-01-11T05:35:17.600Z,9.97
2019-01-11T05:37:46.451Z,9.30
2019-01-11T05:40:17.771Z,10.67
2019-01-11T05:42:47.205Z,9.80
2019-01-11T05:45:16.883Z,8.63
2019-01-11T05:47:46.670Z,9.58
2019-01-11T05:50:23.955Z,9.80
2019-01-11T05:52:48.178Z,8.67
2019-01-11T05:55:29.897Z,8.07
2019-01-11T05:58:23.816Z,7.97
2019-01-11T06:00:52.655Z,7.57
2019-01-11T06:03:21.550Z,7.30
2019-01-11T06:05:50.383Z,6.83
2019-01-11T06:08:19.344Z,7.60
2019-01-11T06:10:48.152Z,6.57
2019-01-11T06:13:17.028Z,7.53
2019-01-11T06:15:45.936Z,7.20
2019-01-11T06:18:14.759Z,7.00
2019-01-11T06:20:44.862Z,7.70
2019-01-11T06:23:13.895Z,6.57
2019-01-11T06:25:42.876Z,6.17
2019-01-11T06:28:11.828Z,6.10
2019-01-11T06:30:40.848Z,5.87
2019-01-11T06:33:09.874Z,6.67
2019-01-11T06:35:38.689Z,6.33
2019-01-11T06:38:07.502Z,6.50
2019-01-11T06:40:36.431Z,6.67
2019-01-11T06:43:05.391Z,6.93
2019-01-11T06:45:34.336Z,6.10
2019-01-11T06:48:03.399Z,5.60
2019-01-11T06:50:36.516Z,5.53
2019-01-11T06:53:03.583Z,5.90
2019-01-11T06:55:32.412Z,5.47
2019-01-11T06:58:01.393Z,5.67
2019-01-11T07:00:30.413Z,5.67
2019-01-11T07:03:00.826Z,5.83
2019-01-11T07:05:32.313Z,5.93
2019-01-11T07:08:03.475Z,4.78
2019-01-11T07:10:33.106Z,5.17
2019-01-11T07:13:02.204Z,5.00
2019-01-11T07:15:32.091Z,5.07
2019-01-11T07:18:01.516Z,5.67
2019-01-11T07:20:30.475Z,5.43
2019-01-11T07:22:59.489Z,5.63
2019-01-11T07:25:28.512Z,5.53
2019-01-11T07:28:02.247Z,5.83
2019-01-11T07:30:53.350Z,5.40
2019-01-11T07:33:24.157Z,5.40
2019-01-11T07:35:57.124Z,5.87
2019-01-11T07:38:25.995Z,5.43
2019-01-11T07:40:54.854Z,5.40
2019-01-11T07:43:23.709Z,5.57
2019-01-11T07:45:52.654Z,5.57
2019-01-11T07:48:21.527Z,4.97
2019-01-11T07:50:50.630Z,5.20
2019-01-11T07:53:20.228Z,5.20
2019-01-11T07:55:49.458Z,5.30
2019-01-11T07:58:18.863Z,4.73
2019-01-11T08:00:48.803Z,5.33
2019-01-11T08:03:18.082Z,4.90
2019-01-11T08:05:49.121Z,4.83
2019-01-11T08:08:18.836Z,4.90
2019-01-11T08:10:48.510Z,5.00
2019-01-11T08:13:19.180Z,4.57
2019-01-11T08:15:49.324Z,4.57
2019-01-11T08:18:19.721Z,5.20
2019-01-11T08:20:48.738Z,4.83
2019-01-11T08:23:19.187Z,4.87
2019-01-11T08:26:02.128Z,4.83
2019-01-11T08:28:43.336Z,5.40
2019-01-11T08:31:12.554Z,5.33
2019-01-11T08:33:42.783Z,4.77
2019-01-11T08:36:13.620Z,4.70
2019-01-11T08:39:10.899Z,5.20
2019-01-11T08:41:42.251Z,4.97
2019-01-11T08:44:12.757Z,5.33
2019-01-11T08:46:43.332Z,5.63
2019-01-11T08:49:13.610Z,4.63
2019-01-11T08:51:45.652Z,5.07
2019-01-11T08:54:15.113Z,5.20
2019-01-11T08:56:44.043Z,4.73
2019-01-11T08:59:12.978Z,5.40
2019-01-11T09:01:41.971Z,4.80
2019-01-11T09:04:11.150Z,4.30
2019-01-11T09:06:41.640Z,5.03
2019-01-11T09:09:10.590Z,5.10
2019-01-11T09:11:39.666Z,4.83
2019-01-11T09:14:10.587Z,4.83
2019-01-11T09:16:39.745Z,4.60
2019-01-11T09:19:09.606Z,5.20
2019-01-11T09:21:41.754Z,5.00
2019-01-11T09:24:10.678Z,4.73
2019-01-11T09:26:39.593Z,4.83
2019-01-11T09:29:09.790Z,4.50
2019-01-11T09:31:38.775Z,5.50
2019-01-11T09:34:07.970Z,4.67
2019-01-11T09:36:37.024Z,4.90
2019-01-11T09:39:08.923Z,4.97
2019-01-11T09:41:37.889Z,5.57
2019-01-11T09:44:07.054Z,5.73
2019-01-11T09:46:36.121Z,5.33
2019-01-11T09:49:05.196Z,5.27
2019-01-11T09:51:34.339Z,5.33
2019-01-11T09:54:03.383Z,6.07
2019-01-11T09:56:32.536Z,5.67
2019-01-11T09:59:02.187Z,5.80
2019-01-11T10:01:31.296Z,5.30
2019-01-11T10:04:01.428Z,5.73
2019-01-11T10:06:36.936Z,6.33
2019-01-11T10:09:08.510Z,6.33
2019-01-11T10:11:52.270Z,5.90
2019-01-11T10:14:42.052Z,6.28
2019-01-11T10:17:16.512Z,6.00
2019-01-11T10:19:45.358Z,6.17
2019-01-11T10:22:14.271Z,6.37
2019-01-11T10:24:43.145Z,6.23
2019-01-11T10:27:12.035Z,6.27
2019-01-11T10:29:41.330Z,6.50
2019-01-11T10:32:10.303Z,7.10
2019-01-11T10:34:39.234Z,6.43
2019-01-11T10:37:08.249Z,5.70
2019-01-11T10:39:37.533Z,5.97
2019-01-11T10:42:06.571Z,6.60
2019-01-11T10:44:35.696Z,6.27
2019-01-11T10:47:04.704Z,6.30
2019-01-11T10:49:35.612Z,5.77
2019-01-11T10:52:04.691Z,5.63
2019-01-11T10:54:45.631Z,6.50
2019-01-11T10:57:14.712Z,5.80
2019-01-11T10:59:43.668Z,6.20
2019-01-11T11:02:12.706Z,5.97
2019-01-11T11:04:41.842Z,6.17
2019-01-11T11:07:10.848Z,6.70
2019-01-11T11:09:39.655Z,6.50
2019-01-11T11:12:08.643Z,6.17
2019-01-11T11:14:37.582Z,6.50
2019-01-11T11:17:06.595Z,6.43
2019-01-11T11:19:35.587Z,6.40
2019-01-11T11:22:04.458Z,5.43
2019-01-11T11:24:33.612Z,6.67
2019-01-11T11:27:03.415Z,5.77
2019-01-11T11:29:32.399Z,6.50
2019-01-11T11:32:01.459Z,5.80
2019-01-11T11:34:30.546Z,6.40
2019-01-11T11:37:03.128Z,6.73
2019-01-11T11:39:32.100Z,6.23
2019-01-11T11:42:01.017Z,6.77
2019-01-11T11:44:30.094Z,6.70
2019-01-11T11:46:58.895Z,5.80
2019-01-11T11:49:27.922Z,5.93
2019-01-11T11:51:57.168Z,5.30
2019-01-11T11:54:26.207Z,6.00
2019-01-11T11:56:58.174Z,5.93
2019-01-11T11:59:27.066Z,5.70
2019-01-11T12:01:55.990Z,5.33
2019-01-11T12:04:29.246Z,6.13
2019-01-11T12:07:00.494Z,6.27
2019-01-11T12:09:30.467Z,5.73
2019-01-11T12:11:59.651Z,5.33
2019-01-11T12:14:28.675Z,5.90
2019-01-11T12:17:05.366Z,5.80
2019-01-11T12:19:34.280Z,4.97
2019-01-11T12:22:06.593Z,5.30
2019-01-11T12:24:36.130Z,5.13
2019-01-11T12:27:06.505Z,6.20
2019-01-11T12:29:35.889Z,6.20
2019-01-11T12:32:05.057Z,6.20
2019-01-11T12:34:34.197Z,5.87
2019-01-11T12:37:03.532Z,5.77
2019-01-11T12:39:32.742Z,5.90
2019-01-11T12:42:01.671Z,6.17
2019-01-11T12:44:30.710Z,5.83
2019-01-11T12:46:59.706Z,5.57
2019-01-11T12:49:28.872Z,5.80
2019-01-11T12:51:57.807Z,5.30
2019-01-11T12:54:26.842Z,6.03
2019-01-11T12:56:55.904Z,6.20
2019-01-11T12:59:24.948Z,6.13
2019-01-11T13:01:53.933Z,5.57
2019-01-11T13:04:23.124Z,5.80
2019-01-11T13:06:52.139Z,6.07
2019-01-11T13:09:21.458Z,5.70
2019-01-11T13:11:50.632Z,6.53
2019-01-11T13:14:19.465Z,7.90
2019-01-11T13:16:48.344Z,7.97
2019-01-11T13:19:17.135Z,7.60
2019-01-11T13:21:46.176Z,7.53
2019-01-11T13:24:14.935Z,6.17
2019-01-11T13:26:43.695Z,6.80
2019-01-11T13:29:12.512Z,7.10
2019-01-11T13:31:41.268Z,6.90
2019-01-11T13:34:10.066Z,7.07
2019-01-11T13:36:38.944Z,7.70
2019-01-11T13:39:11.262Z,7.30
2019-01-11T13:41:40.100Z,8.83
2019-01-11T13:44:08.964Z,7.50
2019-01-11T13:46:37.783Z,8.17
2019-01-11T13:49:06.721Z,7.20
2019-01-11T13:51:35.496Z,8.03
2019-01-11T13:54:04.708Z,7.50
2019-01-11T13:56:33.544Z,8.83
2019-01-11T13:59:02.435Z,7.60
2019-01-11T14:01:31.302Z,8.13
2019-01-11T14:04:00.185Z,8.73
2019-01-11T14:06:29.006Z,7.87
2019-01-11T14:08:57.833Z,8.77
2019-01-11T14:11:26.642Z,8.60
2019-01-11T14:13:55.368Z,7.80
2019-01-11T14:16:24.198Z,8.03
2019-01-11T14:18:53.266Z,8.00
2019-01-11T14:21:22.032Z,7.40
2019-01-11T14:23:50.814Z,7.80
2019-01-11T14:26:19.577Z,8.13
2019-01-11T14:28:48.406Z,8.23
2019-01-11T14:31:17.216Z,7.87
2019-01-11T14:33:45.994Z,7.90
2019-01-11T14:36:14.838Z,8.23
2019-01-11T14:38:43.720Z,7.10
2019-01-11T14:41:12.958Z,7.90
2019-01-11T14:43:41.720Z,6.70
2019-01-11T14:46:10.513Z,7.93
2019-01-11T14:48:39.460Z,6.63
2019-01-11T14:51:08.520Z,8.03
2019-01-11T14:53:37.290Z,6.77
2019-01-11T14:56:06.126Z,7.00
2019-01-11T14:58:35.012Z,7.43
2019-01-11T15:01:03.927Z,7.50
2019-01-11T15:03:32.792Z,7.27
2019-01-11T15:06:01.566Z,7.00
2019-01-11T15:08:30.425Z,7.10
2019-01-11T15:10:59.244Z,6.97
2019-01-11T15:13:28.120Z,6.17
2019-01-11T15:15:56.882Z,6.53
2019-01-11T15:18:25.777Z,6.67
2019-01-11T15:20:54.592Z,6.73
2019-01-11T15:23:23.462Z,6.17
2019-01-11T15:25:52.295Z,5.50
2019-01-11T15:28:21.294Z,5.60
2019-01-11T15:30:50.241Z,5.30
2019-01-11T15:33:19.078Z,4.87
2019-01-11T15:35:47.850Z,4.47
2019-01-11T15:38:16.729Z,5.27
2019-01-11T15:40:45.557Z,5.73
2019-01-11T15:43:14.752Z,5.43
2019-01-11T15:45:43.631Z,5.20
2019-01-11T15:48:17.530Z,3.93
2019-01-11T15:50:52.089Z,4.33
2019-01-11T15:53:20.884Z,4.20
2019-01-11T15:55:51.451Z,4.07
2019-01-11T15:58:20.500Z,4.07
2019-01-11T16:00:49.584Z,3.40
2019-01-11T16:03:18.624Z,3.97
2019-01-11T16:05:48.211Z,3.83
2019-01-11T16:08:17.169Z,3.67
2019-01-11T16:11:20.894Z,3.37
2019-01-11T16:14:14.586Z,3.33
2019-01-11T16:16:59.606Z,2.97
2019-01-11T16:19:28.542Z,4.20
2019-01-11T16:21:57.720Z,3.00
2019-01-11T16:24:27.153Z,3.50
2019-01-11T16:26:56.002Z,3.93
2019-01-11T16:29:24.894Z,3.90
2019-01-11T16:31:54.014Z,4.17
2019-01-11T16:34:22.897Z,3.87
2019-01-11T16:36:51.663Z,4.07
2019-01-11T16:39:20.602Z,3.90
2019-01-11T16:41:49.448Z,4.00
2019-01-11T16:44:18.661Z,3.87
2019-01-11T16:46:47.724Z,4.07
2019-01-11T16:49:17.318Z,3.93
2019-01-11T16:51:46.319Z,3.87
2019-01-11T16:54:15.503Z,4.30
2019-01-11T16:57:05.833Z,4.37
2019-01-11T16:59:45.943Z,5.27
2019-01-11T17:02:15.283Z,4.13
2019-01-11T17:11:37.046Z,5.23
2019-01-11T17:14:06.315Z,4.70
2019-01-11T17:16:35.413Z,5.27
2019-01-11T17:19:04.391Z,5.50
2019-01-11T17:21:33.335Z,5.23
2019-01-11T17:24:02.081Z,5.83
2019-01-11T17:26:30.883Z,6.73
2019-01-11T17:32:55.577Z,5.77
2019-01-11T17:35:26.249Z,5.77
2019-01-11T17:37:55.153Z,5.70
2019-01-11T17:40:23.948Z,5.47
2019-01-11T17:42:52.747Z,5.40
2019-01-11T17:45:21.607Z,5.47
2019-01-11T17:47:50.645Z,6.30
2019-01-11T17:50:19.882Z,5.93
2019-01-11T17:52:48.775Z,6.83
2019-01-11T17:55:18.013Z,6.30
2019-01-11T17:57:46.855Z,4.43
2019-01-11T18:00:17.324Z,5.23
2019-01-11T18:02:46.200Z,4.67
2019-01-11T18:05:16.379Z,4.93
2019-01-11T18:07:45.650Z,4.70
2019-01-11T18:10:14.495Z,4.93
2019-01-11T18:12:43.334Z,4.70
2019-01-11T18:15:19.233Z,4.37
2019-01-11T18:17:48.613Z,4.35
2019-01-11T18:20:23.241Z,5.50
2019-01-11T18:22:52.158Z,5.10
2019-01-11T18:25:21.131Z,5.27
2019-01-11T18:27:49.861Z,5.43
2019-01-11T18:30:19.353Z,5.30
2019-01-11T18:32:48.705Z,5.53
2019-01-11T18:35:17.970Z,4.53
2019-01-11T18:37:46.901Z,4.73
2019-01-11T18:40:18.439Z,5.07
2019-01-11T18:42:47.640Z,5.10
2019-01-11T18:45:16.577Z,5.37
2019-01-11T18:47:45.545Z,5.00
2019-01-11T18:50:17.062Z,4.40
2019-01-11T18:52:46.270Z,5.70
2019-01-11T18:55:15.206Z,4.00
2019-01-11T18:57:45.669Z,4.90
2019-01-11T19:00:17.205Z,4.53
2019-01-11T19:02:46.263Z,5.50
2019-01-11T19:05:15.773Z,4.53
2019-01-11T19:07:46.219Z,5.53
2019-01-11T19:10:17.320Z,5.43
2019-01-11T19:12:46.799Z,5.97
2019-01-11T19:15:18.104Z,5.27
2019-01-11T19:17:47.150Z,7.10
2019-01-11T19:20:22.617Z,6.40
2019-01-11T19:22:51.621Z,6.00
2019-01-11T19:25:20.956Z,6.63
2019-01-11T19:27:50.690Z,5.10
2019-01-11T19:30:21.599Z,6.43
2019-01-11T19:32:51.073Z,7.03
2019-01-11T19:35:20.301Z,5.97
2019-01-11T19:37:49.518Z,5.70
2019-01-11T19:40:18.513Z,5.87
2019-01-11T19:42:47.684Z,5.27
2019-01-11T19:45:16.779Z,5.63
2019-01-11T19:47:45.715Z,5.57
2019-01-11T19:50:17.262Z,5.80
2019-01-11T19:52:46.275Z,6.57
2019-01-11T19:55:15.874Z,6.60
2019-01-11T19:57:45.622Z,6.23
2019-01-11T20:00:17.663Z,6.93
2019-01-11T20:02:47.002Z,5.93
2019-01-11T20:05:16.099Z,7.83
2019-01-11T20:07:45.027Z,7.43
2019-01-11T20:10:20.268Z,7.30
2019-01-11T20:12:49.494Z,7.47
2019-01-11T20:15:18.512Z,7.93
2019-01-11T20:17:47.479Z,6.97
2019-01-11T20:20:16.490Z,7.90
2019-01-11T20:22:45.259Z,7.37
2019-01-11T20:25:19.051Z,7.07
2019-01-11T20:27:48.729Z,6.85
2019-01-11T20:30:19.735Z,6.63
2019-01-11T20:32:49.453Z,6.45
2019-01-11T20:35:18.701Z,7.40
2019-01-11T20:37:47.961Z,7.10
2019-01-11T20:40:17.148Z,7.47
2019-01-11T20:42:46.107Z,7.47
2019-01-11T20:45:16.943Z,5.87
2019-01-11T20:47:46.018Z,5.70
2019-01-11T20:50:17.676Z,5.40
2019-01-11T20:52:46.901Z,5.53
2019-01-11T20:55:16.210Z,4.50
2019-01-11T20:57:46.092Z,4.30
2019-01-11T21:00:19.136Z,4.43
2019-01-11T21:02:49.271Z,4.55
2019-01-11T21:05:18.688Z,5.10
2019-01-11T21:07:51.350Z,4.57
2019-01-11T21:10:21.138Z,3.37
2019-01-11T21:12:50.844Z,4.60
2019-01-11T21:15:20.439Z,4.00
2019-01-11T21:17:50.290Z,4.17
2019-01-11T21:20:19.726Z,4.73
2019-01-11T21:22:49.000Z,5.10
2019-01-11T21:25:18.194Z,4.47
2019-01-11T21:27:47.300Z,5.40
2019-01-11T21:30:21.650Z,6.77
2019-01-11T21:32:50.658Z,5.23
2019-01-11T21:35:19.570Z,5.07
2019-01-11T21:37:49.098Z,6.03
2019-01-11T21:40:19.250Z,6.00
2019-01-11T21:42:48.901Z,5.83
2019-01-11T21:45:18.437Z,5.40
2019-01-11T21:47:47.702Z,5.93
2019-01-11T21:50:24.365Z,6.93
2019-01-11T21:52:53.227Z,6.07
2019-01-11T21:55:22.684Z,5.73
2019-01-11T21:57:51.696Z,7.00
2019-01-11T22:00:40.924Z,6.80
2019-01-11T22:03:18.254Z,7.20
2019-01-11T22:05:47.140Z,7.63
2019-01-11T22:08:16.355Z,5.90
2019-01-11T22:10:45.287Z,4.77
2019-01-11T22:13:15.295Z,4.23
2019-01-11T22:15:47.223Z,3.97
2019-01-11T22:18:16.203Z,4.97
2019-01-11T22:20:44.936Z,4.17
2019-01-11T22:23:13.751Z,4.20
2019-01-11T22:25:42.556Z,3.70
2019-01-11T22:28:11.328Z,4.90
2019-01-11T22:30:41.354Z,5.20
2019-01-11T22:33:10.287Z,4.97
2019-01-11T22:35:39.092Z,4.50
2019-01-11T22:38:08.179Z,5.00
2019-01-11T22:40:37.206Z,4.30
2019-01-11T22:43:06.418Z,4.20
2019-01-11T22:45:35.274Z,4.40
2019-01-11T22:48:04.167Z,4.07
2019-01-11T22:50:32.977Z,3.80
2019-01-11T22:53:01.801Z,5.10
2019-01-11T22:55:30.668Z,3.03
2019-01-11T22:57:59.459Z,2.97
2019-01-11T23:00:38.630Z,3.53
2019-01-11T23:03:11.607Z,2.30
2019-01-11T23:05:40.450Z,2.83
2019-01-11T23:08:12.582Z,2.77
2019-01-11T23:11:21.684Z,4.03
2019-01-11T23:13:50.583Z,2.63
2019-01-11T23:16:30.905Z,3.27
2019-01-11T23:18:59.878Z,2.67
2019-01-11T23:21:28.650Z,3.03
2019-01-11T23:23:57.925Z,3.20
2019-01-11T23:26:26.707Z,3.37
2019-01-11T23:28:55.519Z,2.77
2019-01-11T23:31:25.590Z,2.80
2019-01-11T23:33:54.563Z,2.77
2019-01-11T23:36:23.513Z,3.63
2019-01-11T23:38:52.502Z,2.57
2019-01-11T23:41:21.437Z,2.50
2019-01-11T23:43:50.402Z,4.03
2019-01-11T23:46:19.244Z,2.53
2019-01-11T23:48:48.100Z,2.23
2019-01-11T23:51:16.976Z,2.23
2019-01-11T23:53:45.949Z,2.30
2019-01-11T23:56:14.730Z,2.07
2019-01-11T23:58:43.496Z,2.77
